<?xml version="1.0" encoding="UTF-8" standalone="no" ?>
<gpx xmlns="http://www.topografix.com/GPX/1/1" xmlns:xsi="http://www.w3.org/2001/XMLSchema-instance" xsi:schemaLocation="http://www.topografix.com/GPX/1/1 http://www.topografix.com/GPX/1/1/gpx.xsd" version="1.1" creator="VisuGPX - https://www.visugpx.com">
  <metadata>
    <name>De Meillerie à Salvigny</name>
    <desc><![CDATA[Randonnée en Haute-Savoie]]></desc>
  </metadata>
  <trk>
    <name><![CDATA[ACTIVE LOG: 26 JUL 2015 13:13]]></name>
    <trkseg>
      <trkpt lat="46.3513" lon="6.72464">
        <ele>1922.29</ele>
        <time>2015-07-26T11:14:35Z</time>
      </trkpt>
      <trkpt lat="46.35139" lon="6.72508">
        <ele>1932.39</ele>
        <time>2015-07-26T11:15:40Z</time>
      </trkpt>
      <trkpt lat="46.35137" lon="6.7253">
        <ele>1940.08</ele>
        <time>2015-07-26T11:16:45Z</time>
      </trkpt>
      <trkpt lat="46.35148" lon="6.72542">
        <ele>1948.73</ele>
        <time>2015-07-26T11:17:50Z</time>
      </trkpt>
      <trkpt lat="46.35157" lon="6.72564">
        <ele>1959.3</ele>
        <time>2015-07-26T11:18:55Z</time>
      </trkpt>
      <trkpt lat="46.35156" lon="6.72603">
        <ele>1970.36</ele>
        <time>2015-07-26T11:20:00Z</time>
      </trkpt>
      <trkpt lat="46.3515" lon="6.72604">
        <ele>1969.4</ele>
        <time>2015-07-26T11:21:05Z</time>
      </trkpt>
      <trkpt lat="46.35161" lon="6.72613">
        <ele>1973.72</ele>
        <time>2015-07-26T11:22:10Z</time>
      </trkpt>
      <trkpt lat="46.35161" lon="6.72601">
        <ele>1973.72</ele>
        <time>2015-07-26T11:23:15Z</time>
      </trkpt>
      <trkpt lat="46.35174" lon="6.72624">
        <ele>1985.26</ele>
        <time>2015-07-26T11:24:20Z</time>
      </trkpt>
      <trkpt lat="46.35193" lon="6.7265">
        <ele>1994.87</ele>
        <time>2015-07-26T11:25:25Z</time>
      </trkpt>
      <trkpt lat="46.35199" lon="6.72674">
        <ele>2004.49</ele>
        <time>2015-07-26T11:26:30Z</time>
      </trkpt>
      <trkpt lat="46.35205" lon="6.72678">
        <ele>2012.18</ele>
        <time>2015-07-26T11:27:35Z</time>
      </trkpt>
      <trkpt lat="46.35205" lon="6.72694">
        <ele>2022.27</ele>
        <time>2015-07-26T11:28:40Z</time>
      </trkpt>
      <trkpt lat="46.35212" lon="6.72715">
        <ele>2037.17</ele>
        <time>2015-07-26T11:29:45Z</time>
      </trkpt>
      <trkpt lat="46.35221" lon="6.72721">
        <ele>2043.9</ele>
        <time>2015-07-26T11:30:50Z</time>
      </trkpt>
      <trkpt lat="46.35218" lon="6.7274">
        <ele>2054.47</ele>
        <time>2015-07-26T11:31:55Z</time>
      </trkpt>
      <trkpt lat="46.35221" lon="6.7275">
        <ele>2059.76</ele>
        <time>2015-07-26T11:33:00Z</time>
      </trkpt>
      <trkpt lat="46.35228" lon="6.72747">
        <ele>2065.53</ele>
        <time>2015-07-26T11:34:05Z</time>
      </trkpt>
      <trkpt lat="46.35243" lon="6.72762">
        <ele>2074.18</ele>
        <time>2015-07-26T11:35:10Z</time>
      </trkpt>
      <trkpt lat="46.3525" lon="6.72766">
        <ele>2080.43</ele>
        <time>2015-07-26T11:36:15Z</time>
      </trkpt>
      <trkpt lat="46.35243" lon="6.72775">
        <ele>2086.68</ele>
        <time>2015-07-26T11:37:20Z</time>
      </trkpt>
      <trkpt lat="46.35254" lon="6.72797">
        <ele>2096.77</ele>
        <time>2015-07-26T11:38:25Z</time>
      </trkpt>
      <trkpt lat="46.35259" lon="6.72806">
        <ele>2109.75</ele>
        <time>2015-07-26T11:39:30Z</time>
      </trkpt>
      <trkpt lat="46.35259" lon="6.72813">
        <ele>2114.08</ele>
        <time>2015-07-26T11:40:35Z</time>
      </trkpt>
      <trkpt lat="46.35266" lon="6.72838">
        <ele>2118.88</ele>
        <time>2015-07-26T11:41:23Z</time>
      </trkpt>
    </trkseg>
  </trk>
</gpx>